Latest Weather Observations for Edinburgh

IDS60801

Issued at 8:21 pm CDT Sunday 24 January 2021 (issued every 10 minutes, with the page automatically refreshed every 10 minutes)

About weather observations | Map of weather stations | Latest weather observations for SA | Other Formats
Station Details ID: 023083 Name: EDINBURGH RAAF Lat: -34.71 Lon: 138.62 Height: 16.54 m
Data from the previous 72 hours. | See also: Recent months at Edinburgh
Date/Time
CDT
Temp
°C
App
Temp
°C
Dew
Point
°C
Rel
Hum
%
Delta-T
°C
Wind Press
QNH
hPa
Press
MSL
hPa
Rain since
9am
mm
Dir  Spd
km/h
Gust
km/h
Spd
kts
Gust
kts
24/08:00pm 34.1 29.5 5.6 17 15.3 SSW 19 22 10 12 1001.2 1001.2 0.0
24/07:30pm 35.0 28.8 6.3 17 15.7 SSW 28 33 15 18 1001.0 1001.0 0.0
24/07:00pm 37.0 30.4 4.0 13 17.6 SSW 28 37 15 20 1000.7 1000.7 0.0
24/06:30pm 38.1 31.5 7.9 16 17.2 WSW 32 41 17 22 1000.4 1000.4 0.0
24/06:26pm 38.6 31.0 7.4 15 17.6 WSW 37 54 20 29 1000.3 1000.3 0.0
24/06:19pm 39.4 31.7 3.5 11 19.2 WNW 33 54 18 29 1000.2 1000.2 0.0
24/06:17pm 41.1 33.6 3.4 10 20.3 WNW 32 54 17 29 1000.2 1000.2 0.0
24/06:00pm 42.1 35.0 1.1 8 21.6 WNW 28 35 15 19 1000.1 1000.1 0.0
24/05:30pm 42.3 33.8 1.2 8 21.7 W 35 43 19 23 1000.1 1000.1 0.0
24/05:00pm 42.4 34.0 1.3 8 21.6 W 35 48 19 26 1000.3 1000.3 0.0
24/04:30pm 42.1 33.0 -0.8 7 22.0 W 37 44 20 24 1000.7 1000.7 0.0
24/04:00pm 42.3 33.5 1.2 8 21.6 WNW 37 46 20 25 1001.1 1001.1 0.0
24/03:30pm 42.2 32.6 1.1 8 21.6 WNW 41 54 22 29 1001.4 1001.4 0.0
24/03:00pm 42.0 32.8 1.0 8 21.5 WNW 39 52 21 28 1001.8 1001.8 0.0
24/02:30pm 42.2 32.2 1.1 8 21.6 WNW 43 56 23 30 1002.2 1002.2 0.0
24/02:00pm 41.6 32.1 3.8 10 20.6 WNW 43 52 23 28 1002.5 1002.5 0.0
24/01:30pm 41.6 32.1 3.8 10 20.6 WNW 43 56 23 30 1002.9 1002.9 0.0
24/01:00pm 40.9 32.8 3.3 10 20.2 WNW 35 48 19 26 1003.4 1003.4 0.0
24/12:30pm 42.5 35.5 -0.5 7 22.1 NW 26 37 14 20 1003.7 1003.7 0.0
24/12:00pm 42.0 34.6 -0.9 7 21.9 NNW 28 39 15 21 1004.1 1004.1 0.0
24/11:30am 42.6 36.4 -0.4 7 22.2 NNE 22 30 12 16 1004.4 1004.4 0.0
24/11:00am 38.9 31.6 -3.1 7 20.3 NE 26 35 14 19 1004.7 1004.7 0.0
24/10:30am 38.7 31.2 -1.4 8 19.9 NE 28 35 15 19 1005.0 1005.0 0.0
24/10:00am 36.6 28.9 -3.0 8 18.8 NE 28 37 15 20 1005.3 1005.3 0.0
24/09:30am 35.1 27.6 -1.1 10 17.6 NE 28 35 15 19 1005.6 1005.6 0.0
24/09:00am 34.5 26.0 -1.5 10 17.3 NE 33 43 18 23 1005.7 1005.7 0.0
24/08:30am 34.0 25.7 -0.6 11 16.9 NE 33 48 18 26 1005.7 1005.7 0.0
24/08:00am 32.5 25.1 1.6 14 15.4 NE 30 37 16 20 1005.6 1005.6 0.0
24/07:30am 31.5 23.9 0.8 14 15.1 NE 30 41 16 22 1005.4 1005.4 0.0
24/07:00am 31.4 23.4 1.7 15 14.7 NE 33 44 18 24 1005.2 1005.2 0.0
24/06:46am 31.6 23.8 1.8 15 14.8 NE 32 50 17 27 1005.1 1005.1 0.0
24/06:30am 31.5 24.1 1.8 15 14.8 NE 30 43 16 23 1005.1 1005.1 0.0
24/06:00am 32.0 24.9 1.2 14 15.3 NE 28 39 15 21 1005.0 1005.0 0.0
24/05:30am 31.6 25.3 1.8 15 14.9 NE 24 35 13 19 1004.8 1004.8 0.0
24/05:00am 31.7 25.3 1.0 14 15.1 NE 24 32 13 17 1004.9 1004.9 0.0
24/04:30am 31.4 25.9 1.7 15 14.8 NE 20 30 11 16 1004.9 1004.9 0.0
24/04:00am 30.9 26.3 3.8 18 13.9 ENE 17 22 9 12 1004.8 1004.8 0.0
24/03:30am 31.2 25.7 4.1 18 14.0 ENE 22 30 12 16 1005.0 1005.0 0.0
24/03:00am 31.4 26.3 4.2 18 14.1 ENE 20 30 11 16 1005.1 1005.1 0.0
24/02:30am 31.6 26.2 4.4 18 14.2 ENE 22 30 12 16 1005.3 1005.3 0.0
24/02:11am 31.7 25.2 4.5 18 14.2 ENE 28 46 15 25 1005.4 1005.4 0.0
24/02:00am 31.9 25.4 4.6 18 14.3 E 28 41 15 22 1005.5 1005.5 0.0
24/01:30am 31.9 26.9 4.6 18 14.3 E 20 39 11 21 1005.9 1005.9 0.0
24/01:00am 31.8 26.2 5.3 19 14.0 E 24 35 13 19 1006.2 1006.2 0.0
24/12:30am 32.0 27.2 4.7 18 14.3 E 19 28 10 15 1006.5 1006.5 0.0
24/12:00am 32.3 27.6 5.0 18 14.4 E 19 30 10 16 1006.6 1006.6 0.0
 
Date/Time
CDT
Temp
°C
App
Temp
°C
Dew
Point
°C
Rel
Hum
%
Delta-T
°C
Wind Press
QNH
hPa
Press
MSL
hPa
Rain since
9am
mm
Dir  Spd
km/h
Gust
km/h
Spd
kts
Gust
kts
23/11:30pm 32.6 27.8 4.4 17 14.8 E 19 30 10 16 1006.8 1006.8 0.0
23/11:00pm 32.7 27.9 4.5 17 14.8 ESE 19 26 10 14 1007.0 1007.0 0.0
23/10:30pm 33.1 28.0 3.9 16 15.2 ESE 20 30 11 16 1007.0 1007.0 0.0
23/10:00pm 33.3 28.2 4.1 16 15.3 ESE 20 32 11 17 1006.9 1006.9 0.0
23/09:30pm 33.0 29.0 4.7 17 14.9 ESE 15 24 8 13 1006.9 1006.9 0.0
23/09:00pm 33.5 29.7 5.9 18 14.9 SE 15 22 8 12 1006.9 1006.9 0.0
23/08:30pm 35.1 30.7 4.6 15 16.3 SE 17 24 9 13 1006.8 1006.8 0.0
23/08:00pm 36.4 32.2 3.6 13 17.3 SSE 15 22 8 12 1006.4 1006.4 0.0
23/07:30pm 37.2 31.7 0.5 10 18.6 S 19 24 10 13 1006.4 1006.4 0.0
23/07:00pm 37.4 31.1 -0.8 9 18.9 SSW 22 30 12 16 1006.3 1006.3 0.0
23/06:30pm 38.4 32.4 -1.6 8 19.7 SW 20 28 11 15 1006.1 1006.1 0.0
23/06:00pm 39.0 33.2 -1.2 8 20.0 SW 19 28 10 15 1006.1 1006.1 0.0
23/05:30pm 38.9 32.9 -1.3 8 20.0 SW 20 28 11 15 1006.2 1006.2 0.0
23/05:00pm 39.2 33.3 -1.1 8 20.1 SSW 20 28 11 15 1006.3 1006.3 0.0
23/04:30pm 39.3 33.3 -2.8 7 20.5 SW 19 28 10 15 1006.5 1006.5 0.0
23/04:00pm 39.3 32.4 -2.8 7 20.5 SW 24 32 13 17 1006.6 1006.6 0.0
23/03:30pm 39.2 32.3 -2.9 7 20.5 SW 24 32 13 17 1007.0 1007.0 0.0
23/03:00pm 39.8 32.9 -2.4 7 20.7 WSW 24 30 13 16 1007.2 1007.2 0.0
23/02:30pm 39.4 32.7 -0.9 8 20.2 WSW 24 32 13 17 1007.5 1007.5 0.0
23/02:00pm 38.7 32.2 0.2 9 19.5 W 24 35 13 19 1007.7 1007.7 0.0
23/01:30pm 38.3 32.6 -3.5 7 20.0 NE 17 33 9 18 1008.0 1008.0 0.0
23/01:00pm 37.2 31.6 -2.5 8 19.1 ENE 17 24 9 13 1008.5 1008.5 0.0
23/12:30pm 36.8 31.4 -1.2 9 18.7 NE 17 28 9 15 1009.0 1008.9 0.0
23/12:00pm 36.0 31.1 -0.4 10 18.0 NE 15 20 8 11 1009.4 1009.3 0.0
23/11:30am 34.8 29.0 0.0 11 17.2 NNE 20 32 11 17 1009.8 1009.7 0.0
23/11:00am 33.7 27.2 0.4 12 16.4 NE 24 33 13 18 1009.8 1009.7 0.0
23/10:30am 32.9 26.3 -0.2 12 16.1 NE 24 33 13 18 1010.0 1009.9 0.0
23/10:00am 31.9 24.5 -3.5 10 16.1 NNE 26 32 14 17 1010.3 1010.2 0.0
23/09:30am 30.6 23.6 -7.4 8 16.1 NE 22 28 12 15 1010.4 1010.3 0.0
23/09:00am 28.1 24.3 -3.9 12 14.1 ENE 7 11 4 6 1010.4 1010.3 0.0
23/08:30am 24.7 20.4 -4.6 14 12.4 NNE 9 11 5 6 1010.5 1010.4 0.0
23/08:00am 22.2 18.4 -4.0 17 10.9 NE 7 9 4 5 1010.6 1010.5 0.0
23/07:30am 20.3 16.2 -3.4 20 9.8 ENE 9 11 5 6 1010.5 1010.4 0.0
23/07:00am 19.5 15.4 -2.8 22 9.3 ENE 9 13 5 7 1010.3 1010.2 0.0
23/06:30am 16.9 13.7 -0.8 30 7.5 NNE 6 7 3 4 1010.2 1010.1 0.0
23/06:00am 16.4 13.1 0.1 33 7.0 NE 7 9 4 5 1009.9 1009.8 0.0
23/05:30am 18.8 15.5 0.4 29 8.1 ENE 7 9 4 5 1009.7 1009.6 0.0
23/05:00am 17.9 14.7 0.6 31 7.6 ENE 7 9 4 5 1009.5 1009.4 0.0
23/04:30am 17.7 15.7 -0.1 30 7.7 CALM 0 0 0 0 1009.6 1009.5 0.0
23/04:00am 19.4 16.2 -0.6 26 8.7 ENE 6 6 3 3 1009.6 1009.5 0.0
23/03:30am 17.7 14.4 -0.1 30 7.7 NE 7 9 4 5 1009.8 1009.7 0.0
23/03:00am 20.9 17.1 -0.4 24 9.4 ENE 9 11 5 6 1009.8 1009.7 0.0
23/02:30am 20.2 16.9 0.1 26 8.9 ENE 7 11 4 6 1010.1 1010.0 0.0
23/02:00am 20.1 16.4 0.0 26 8.9 NE 9 11 5 6 1010.3 1010.2 0.0
23/01:30am 20.1 17.7 0.0 26 8.9 NNE 2 9 1 5 1010.4 1010.3 0.0
23/01:00am 21.6 17.7 -4.5 17 10.7 NNE 7 11 4 6 1010.4 1010.3 0.0
23/12:30am 24.5 20.5 -5.7 13 12.4 ESE 7 11 4 6 1010.4 1010.3 0.0
23/12:00am 24.0 19.6 -2.5 17 11.6 ENE 11 15 6 8 1010.5 1010.4 0.0
 
Date/Time
CDT
Temp
°C
App
Temp
°C
Dew
Point
°C
Rel
Hum
%
Delta-T
°C
Wind Press
QNH
hPa
Press
MSL
hPa
Rain since
9am
mm
Dir  Spd
km/h
Gust
km/h
Spd
kts
Gust
kts
22/11:30pm 23.1 19.5 -1.8 19 10.9 NE 7 7 4 4 1010.7 1010.6 0.0
22/11:00pm 23.2 21.6 2.7 26 9.8 CALM 0 0 0 0 1011.0 1010.9 0.0
22/10:30pm 25.6 22.5 0.3 19 11.8 SE 6 7 3 4 1010.9 1010.8 0.0
22/10:00pm 26.2 23.1 3.5 23 11.2 SE 9 11 5 6 1010.7 1010.6 0.0
22/09:30pm 27.1 24.9 6.0 26 11.0 SE 7 13 4 7 1010.4 1010.3 0.0
22/09:00pm 26.6 24.7 7.6 30 10.2 SSE 7 11 4 6 1010.2 1010.1 0.0
22/08:30pm 27.0 23.7 8.0 30 10.2 SW 15 20 8 11 1010.1 1010.0 0.0
22/08:00pm 29.0 26.4 9.2 29 11.0 SW 13 17 7 9 1009.8 1009.7 0.0
22/07:30pm 29.6 25.8 9.2 28 11.4 SW 19 24 10 13 1009.7 1009.6 0.0
22/07:00pm 30.1 25.7 7.3 24 12.3 SSW 20 24 11 13 1009.5 1009.4 0.0
22/06:30pm 29.8 24.4 6.5 23 12.4 SW 24 30 13 16 1009.6 1009.5 0.0
22/06:00pm 29.9 24.2 6.5 23 12.5 SW 26 32 14 17 1009.6 1009.5 0.0
22/05:30pm 30.1 23.9 6.1 22 12.7 SW 28 33 15 18 1009.6 1009.5 0.0
22/05:00pm 30.5 23.9 1.9 16 14.2 SW 26 33 14 18 1009.8 1009.7 0.0
22/04:30pm 30.9 24.0 0.3 14 14.8 SW 26 32 14 17 1009.9 1009.8 0.0
22/04:00pm 31.2 24.3 2.4 16 14.4 SW 28 33 15 18 1010.2 1010.1 0.0
22/03:30pm 31.7 25.5 1.9 15 14.9 SW 24 33 13 18 1010.3 1010.2 0.0
22/03:00pm 31.2 24.9 1.5 15 14.7 SW 24 30 13 16 1010.5 1010.4 0.0
22/02:30pm 31.1 24.7 3.2 17 14.2 SW 26 32 14 17 1010.6 1010.5 0.0
22/02:00pm 31.6 26.0 0.9 14 15.1 SW 20 32 11 17 1010.7 1010.6 0.0
22/01:30pm 30.6 25.0 1.0 15 14.5 SW 20 30 11 16 1011.0 1010.9 0.0
22/01:00pm 30.3 25.2 4.1 19 13.5 WSW 20 28 11 15 1011.2 1011.1 0.0
22/12:30pm 29.3 24.5 4.7 21 12.7 SW 19 24 10 13 1011.4 1011.3 0.0
22/12:00pm 28.2 24.4 5.7 24 11.7 SW 15 22 8 12 1011.6 1011.5 0.0
22/11:30am 27.3 23.1 3.7 22 11.8 SW 15 20 8 11 1011.8 1011.7 0.0
22/11:00am 27.5 23.2 5.1 24 11.5 SW 17 22 9 12 1012.0 1011.9 0.0
22/10:30am 26.4 23.0 1.7 20 11.9 W 9 13 5 7 1012.1 1012.0 0.0
22/10:00am 25.7 22.8 2.4 22 11.3 SW 7 13 4 7 1012.1 1012.0 0.0
22/09:30am 24.2 21.6 4.0 27 10.0 NW 7 11 4 6 1012.0 1011.9 0.0
22/09:00am 22.9 21.0 4.9 31 8.9 WNW 4 7 2 4 1012.1 1012.0 0.0
22/08:30am 21.8 19.5 2.5 28 9.1 ENE 4 7 2 4 1012.0 1011.9 0.0
22/08:00am 19.1 16.0 1.1 30 8.1 NE 7 9 4 5 1011.8 1011.7 0.0
22/07:30am 16.7 13.6 1.6 36 6.7 NNE 7 7 4 4 1011.7 1011.6 0.0
22/07:00am 14.3 12.6 1.6 42 5.5 CALM 0 0 0 0 1011.3 1011.2 0.0
22/06:30am 14.4 12.2 1.3 41 5.7 ENE 2 6 1 3 1011.2 1011.1 0.0
22/06:00am 16.1 13.1 1.0 36 6.6 ESE 6 7 3 4 1010.8 1010.7 0.0
22/05:30am 13.3 10.4 1.3 44 5.1 NW 6 7 3 4 1010.5 1010.4 0.0
22/05:00am 15.2 12.4 2.1 41 5.8 SW 6 7 3 4 1010.2 1010.1 0.0
22/04:30am 16.4 13.4 2.1 38 6.4 NE 7 9 4 5 1009.5 1009.4 0.0
22/04:00am 15.0 11.9 1.2 39 6.0 NE 7 9 4 5 1009.8 1009.7 0.0
22/03:30am 17.8 14.7 1.3 33 7.4 ENE 7 11 4 6 1009.7 1009.6 0.0
22/03:00am 15.2 12.9 4.9 50 4.8 NNW 6 7 3 4 1010.0 1009.9 0.0
22/02:30am 14.9 11.3 2.8 44 5.4 WNW 11 13 6 7 1010.1 1010.0 0.0
22/02:00am 16.4 14.1 2.8 40 6.2 N 4 6 2 3 1009.7 1009.6 0.0
22/01:30am 18.3 16.4 0.4 30 7.9 CALM 0 0 0 0 1010.0 1009.9 0.0
22/01:00am 20.2 17.4 2.1 30 8.4 ENE 6 9 3 5 1010.3 1010.2 0.0
22/12:30am 23.1 19.9 0.9 23 10.2 ESE 7 11 4 6 1010.7 1010.6 0.0
22/12:00am 23.4 20.4 1.7 24 10.2 ESE 7 11 4 6 1010.9 1010.8 0.0
 
Date/Time
CDT
Temp
°C
App
Temp
°C
Dew
Point
°C
Rel
Hum
%
Delta-T
°C
Wind Press
QNH
hPa
Press
MSL
hPa
Rain since
9am
mm
Dir  Spd
km/h
Gust
km/h
Spd
kts
Gust
kts
21/11:30pm 23.8 20.3 1.4 23 10.5 S 9 15 5 8 1011.1 1011.0 0.0
21/11:00pm 24.6 21.0 0.8 21 11.1 SE 9 15 5 8 1010.8 1010.7 0.0
21/10:30pm 25.3 22.3 2.1 22 11.1 SE 7 11 4 6 1010.8 1010.7 0.0
21/10:00pm 26.0 22.7 2.7 22 11.4 SE 9 13 5 7 1010.8 1010.7 0.0
21/09:30pm 26.7 23.7 3.9 23 11.4 SE 9 11 5 6 1010.2 1010.1 0.0
21/09:00pm 25.2 21.7 5.4 28 10.1 SW 13 17 7 9 1010.1 1010.0 0.0
21/08:30pm 27.3 23.2 4.4 23 11.6 SW 15 19 8 10 1009.8 1009.7 0.0

Other formats

Comma delimited format used in spreadsheet applications
http://www.bom.gov.au/fwo/IDS60801/IDS60801.95676.axf

JavaScript Object Notation format (JSON) in row-major order
http://www.bom.gov.au/fwo/IDS60801/IDS60801.95676.json

Data quality

Most of these data are generated automatically and are frequently updated. Quality checks on data are not normally performed. It is possible for incorrect values to appear. Refer to information at About Latest Weather Observations and please check the disclaimer before using these data.